Terminal Aerodrome Forecast
Issued by NWS

Home | Current Version | Previous Version | Text Only | Print | Product List | Glossary On
Versions: 1 2 3 4 5 6 7 8 9 10 11 12 13 14 15 16 17 18 19 20
326
FTUS43 KLSX 130528
TAFUIN
TAF
KUIN 130528Z 1306/1406 19007KT P6SM FEW250
     FM131100 20012G21KT P6SM FEW250 WS020/23040KT
     FM131500 24016G26KT P6SM SCT250
     FM131700 28018G31KT P6SM SCT250
     FM132100 31019G31KT P6SM BKN060
     FM140500 34013G23KT P6SM SCT045=

USA.gov is the U.S. government's official web portal to all federal, state and local government web resources and services.